createdAt,value
2016-05-02T00:00:50.493Z,20.97
2016-05-02T00:01:50.340Z,20.78
2016-05-02T00:02:50.499Z,20.87
2016-05-02T00:03:50.502Z,20.97
2016-05-02T00:04:50.504Z,20.78
2016-05-02T00:05:50.522Z,20.78
2016-05-02T00:06:50.369Z,20.67
2016-05-02T00:07:50.527Z,20.77
2016-05-02T00:08:50.530Z,20.97
2016-05-02T00:09:50.533Z,20.97
2016-05-02T00:10:50.535Z,20.78
2016-05-02T00:11:50.538Z,20.96
2016-05-02T00:12:50.557Z,20.78
2016-05-02T00:13:50.559Z,20.97
2016-05-02T00:14:50.561Z,20.77
2016-05-02T00:15:50.581Z,20.78
2016-05-02T00:16:50.584Z,20.78
2016-05-02T00:17:50.586Z,21.17
2016-05-02T00:18:50.589Z,21.26
2016-05-02T00:19:50.591Z,21.07
2016-05-02T00:20:50.594Z,20.97
2016-05-02T00:21:50.596Z,20.97
2016-05-02T00:22:50.615Z,20.68
2016-05-02T00:23:50.602Z,20.97
2016-05-02T00:24:50.620Z,20.87
2016-05-02T00:25:50.623Z,20.87
2016-05-02T00:26:50.625Z,20.59
2016-05-02T00:27:50.643Z,20.87
2016-05-02T00:28:50.630Z,21.07
2016-05-02T00:29:50.650Z,20.87
2016-05-02T00:30:50.496Z,21.07
2016-05-02T00:31:50.655Z,21.17
2016-05-02T00:32:50.657Z,20.68
2016-05-02T00:33:50.676Z,21.07
2016-05-02T00:34:50.521Z,21.07
2016-05-02T00:35:50.681Z,21.17
2016-05-02T00:36:50.684Z,20.59
2016-05-02T00:37:50.687Z,20.87
2016-05-02T00:38:50.689Z,20.77
2016-05-02T00:39:50.692Z,20.39
2016-05-02T00:40:50.709Z,20.49
2016-05-02T00:41:50.713Z,21.07
2016-05-02T00:42:50.715Z,20.39
2016-05-02T00:43:50.562Z,20.38
2016-05-02T00:44:50.720Z,20.59
2016-05-02T00:45:50.723Z,20.97
2016-05-02T00:46:50.742Z,20.49
2016-05-02T00:47:50.588Z,20.59
2016-05-02T00:48:50.747Z,20.96
2016-05-02T00:49:50.750Z,20.39
2016-05-02T00:50:52.206Z,20.59
2016-05-02T00:51:50.770Z,20.49
2016-05-02T00:52:50.758Z,20.39
2016-05-02T00:53:50.776Z,20.77
2016-05-02T00:54:50.778Z,20.77
2016-05-02T00:55:50.797Z,21.07
2016-05-02T00:56:50.800Z,20.28
2016-05-02T00:57:50.786Z,20.38
2016-05-02T00:58:50.805Z,20.57
2016-05-02T00:59:50.652Z,20.68
2016-05-02T01:00:50.654Z,20.49
2016-05-02T01:01:50.813Z,21.06
2016-05-02T01:02:50.809Z,20.57
2016-05-02T01:03:50.888Z,20.48
2016-05-02T01:04:50.950Z,20.39
2016-05-02T01:05:50.997Z,21.06
2016-05-02T01:06:50.887Z,20.77
2016-05-02T01:07:51.084Z,20.39
2016-05-02T01:08:51.103Z,20.48
2016-05-02T01:09:51.122Z,20.57
2016-05-02T01:10:51.141Z,20.38
2016-05-02T01:11:51.004Z,20.48
2016-05-02T01:12:51.193Z,20.68
2016-05-02T01:13:51.185Z,20.57
2016-05-02T01:14:51.193Z,20.67
2016-05-02T01:15:51.218Z,20.48
2016-05-02T01:16:51.227Z,20.67
2016-05-02T01:17:51.234Z,20.67
2016-05-02T01:18:51.255Z,20.77
2016-05-02T01:19:51.259Z,20.77
2016-05-02T01:20:51.264Z,20.59
2016-05-02T01:21:51.268Z,20.68
2016-05-02T01:22:51.273Z,20.68
2016-05-02T01:23:51.276Z,20.49
2016-05-02T01:24:51.295Z,20.77
2016-05-02T01:25:51.174Z,20.48
2016-05-02T01:26:51.301Z,20.38
2016-05-02T01:27:51.305Z,20.39
2016-05-02T01:28:51.308Z,20.29
2016-05-02T01:29:51.171Z,20.39
2016-05-02T01:30:51.330Z,20.78
2016-05-02T01:31:51.928Z,20.28
2016-05-02T01:32:51.336Z,20.78
2016-05-02T01:33:51.339Z,20.59
2016-05-02T01:34:51.357Z,20.49
2016-05-02T01:35:51.359Z,20.39
2016-05-02T01:36:51.362Z,20.49
2016-05-02T01:37:51.365Z,20.59
2016-05-02T01:38:51.368Z,20.49
2016-05-02T01:39:51.214Z,20.59
2016-05-02T01:40:51.373Z,20.29
2016-05-02T01:41:51.391Z,20.39
2016-05-02T01:42:51.394Z,20.2
2016-05-02T01:43:51.397Z,20.1
2016-05-02T01:44:51.244Z,20.1
2016-05-02T01:45:51.418Z,20.2
2016-05-02T01:46:51.421Z,20.29
2016-05-02T01:47:51.424Z,20.39
2016-05-02T01:48:51.426Z,20.2
2016-05-02T01:49:51.429Z,20.59
2016-05-02T01:50:51.432Z,20.49
2016-05-02T01:51:51.450Z,20.2
2016-05-02T01:52:51.437Z,20.29
2016-05-02T01:53:51.440Z,20.39
2016-05-02T01:54:51.457Z,20.39
2016-05-02T01:55:51.460Z,20.2
2016-05-02T01:56:51.463Z,20.39
2016-05-02T01:57:51.466Z,20.2
2016-05-02T01:58:51.484Z,20.01
2016-05-02T01:59:51.487Z,20.2
2016-05-02T02:00:51.490Z,20.2
2016-05-02T02:01:51.492Z,20.39
2016-05-02T02:02:51.495Z,20.2
2016-05-02T02:03:51.514Z,20.01
2016-05-02T02:04:51.500Z,20.2
2016-05-02T02:05:51.534Z,20.01
2016-05-02T02:06:51.522Z,19.91
2016-05-02T02:07:51.524Z,19.91
2016-05-02T02:08:51.370Z,20.1
2016-05-02T02:09:51.545Z,19.91
2016-05-02T02:10:51.547Z,20.01
2016-05-02T02:11:51.394Z,19.81
2016-05-02T02:12:51.553Z,19.91
2016-05-02T02:13:51.556Z,20.01
2016-05-02T02:14:51.574Z,20.01
2016-05-02T02:15:51.577Z,19.81
2016-05-02T02:16:51.563Z,20.01
2016-05-02T02:17:51.582Z,20.01
2016-05-02T02:18:51.585Z,20.01
2016-05-02T02:19:51.588Z,20.01
2016-05-02T02:20:51.590Z,19.91
2016-05-02T02:21:51.608Z,19.82
2016-05-02T02:22:51.611Z,19.91
2016-05-02T02:23:51.610Z,20.21
2016-05-02T02:24:51.617Z,19.81
2016-05-02T02:25:51.624Z,19.52
2016-05-02T02:26:51.867Z,19.63
2016-05-02T02:27:51.666Z,20.29
2016-05-02T02:28:51.701Z,19.43
2016-05-02T02:29:51.640Z,20.21
2016-05-02T02:30:51.518Z,20.31
2016-05-02T02:31:51.662Z,19.82
2016-05-02T02:32:51.665Z,19.82
2016-05-02T02:33:51.511Z,19.71
2016-05-02T02:34:51.670Z,19.91
2016-05-02T02:35:51.672Z,20.21
2016-05-02T02:36:51.675Z,19.43
2016-05-02T02:37:51.678Z,19.43
2016-05-02T02:38:51.695Z,19.81
2016-05-02T02:39:51.698Z,20.11
2016-05-02T02:40:51.701Z,19.81
2016-05-02T02:41:51.704Z,19.82
2016-05-02T02:42:51.722Z,19.63
2016-05-02T02:43:51.725Z,19.81
2016-05-02T02:44:51.727Z,19.73
2016-05-02T02:45:51.746Z,19.82
2016-05-02T02:46:51.733Z,19.81
2016-05-02T02:47:51.736Z,19.82
2016-05-02T02:48:51.754Z,20.01
2016-05-02T02:49:51.757Z,19.71
2016-05-02T02:50:52.525Z,19.52
2016-05-02T02:51:51.763Z,19.73
2016-05-02T02:52:51.765Z,19.82
2016-05-02T02:53:51.768Z,19.81
2016-05-02T02:54:51.786Z,19.82
2016-05-02T02:55:51.632Z,19.82
2016-05-02T02:56:51.791Z,19.73
2016-05-02T02:57:51.793Z,19.34
2016-05-02T02:58:51.812Z,19.73
2016-05-02T02:59:51.816Z,19.43
2016-05-02T03:00:51.818Z,19.71
2016-05-02T03:01:51.820Z,19.82
2016-05-02T03:02:51.823Z,19.71
2016-05-02T03:03:51.826Z,19.81
2016-05-02T03:04:51.688Z,19.73
2016-05-02T03:05:53.457Z,19.53
2016-05-02T03:06:51.850Z,19.81
2016-05-02T03:07:51.853Z,19.43
2016-05-02T03:08:51.856Z,19.81
2016-05-02T03:09:51.701Z,19.71
2016-05-02T03:10:51.876Z,19.73
2016-05-02T03:11:51.879Z,19.71
2016-05-02T03:12:51.726Z,19.71
2016-05-02T03:13:51.884Z,19.71
2016-05-02T03:14:51.886Z,19.33
2016-05-02T03:15:51.905Z,19.71
2016-05-02T03:16:51.908Z,19.71
2016-05-02T03:17:51.911Z,19.71
2016-05-02T03:18:51.913Z,19.91
2016-05-02T03:19:51.916Z,19.81
2016-05-02T03:20:52.418Z,19.71
2016-05-02T03:21:51.937Z,20.29
2016-05-02T03:22:51.939Z,19.71
2016-05-02T03:23:51.942Z,19.71
2016-05-02T03:24:51.835Z,19.71
2016-05-02T03:25:51.807Z,20.29
2016-05-02T03:26:51.950Z,19.71
2016-05-02T03:27:51.968Z,19.81
2016-05-02T03:28:51.971Z,19.71
2016-05-02T03:29:51.974Z,19.62
2016-05-02T03:30:51.977Z,19.91
2016-05-02T03:31:51.838Z,19.71
2016-05-02T03:32:51.998Z,19.71
2016-05-02T03:33:51.843Z,19.43
2016-05-02T03:34:52.050Z,19.81
2016-05-02T03:35:51.849Z,19.33
2016-05-02T03:36:52.024Z,19.33
2016-05-02T03:37:52.011Z,19.71
2016-05-02T03:38:52.029Z,19.81
2016-05-02T03:39:52.017Z,19.81
2016-05-02T03:40:52.112Z,19.71
2016-05-02T03:41:52.037Z,19.71
2016-05-02T03:42:52.039Z,19.71
2016-05-02T03:43:51.902Z,19.43
2016-05-02T03:44:52.045Z,19.71
2016-05-02T03:45:52.048Z,19.81
2016-05-02T03:46:52.067Z,19.43
2016-05-02T03:47:51.913Z,19.71
2016-05-02T03:48:52.072Z,19.62
2016-05-02T03:49:51.933Z,20.1
2016-05-02T03:50:52.343Z,19.71
2016-05-02T03:51:51.939Z,19.62
2016-05-02T03:52:52.099Z,19.81
2016-05-02T03:53:52.101Z,19.62
2016-05-02T03:54:52.104Z,19.52
2016-05-02T03:55:52.122Z,19.62
2016-05-02T03:56:52.125Z,19.53
2016-05-02T03:57:52.113Z,19.52
2016-05-02T03:58:52.130Z,19.53
2016-05-02T03:59:52.133Z,19.81
2016-05-02T04:00:52.135Z,19.62
2016-05-02T04:01:52.154Z,19.43
2016-05-02T04:02:52.157Z,19.43
2016-05-02T04:03:52.160Z,19.71
2016-05-02T04:04:52.162Z,19.62
2016-05-02T04:05:52.196Z,19.73
2016-05-02T04:06:52.183Z,19.71
2016-05-02T04:07:52.170Z,19.71
2016-05-02T04:08:52.173Z,19.63
2016-05-02T04:09:52.190Z,19.63
2016-05-02T04:10:52.193Z,19.81
2016-05-02T04:11:52.212Z,20.01
2016-05-02T04:12:52.231Z,19.62
2016-05-02T04:13:52.061Z,19.53
2016-05-02T04:14:52.220Z,19.73
2016-05-02T04:15:52.223Z,19.62
2016-05-02T04:16:52.225Z,19.73
2016-05-02T04:17:52.244Z,19.63
2016-05-02T04:18:52.247Z,19.62
2016-05-02T04:19:52.249Z,19.62
2016-05-02T04:20:52.095Z,19.73
2016-05-02T04:21:52.255Z,19.53
2016-05-02T04:22:52.257Z,19.82
2016-05-02T04:23:52.260Z,19.63
2016-05-02T04:24:52.278Z,19.05
2016-05-02T04:25:52.124Z,19.73
2016-05-02T04:26:52.283Z,19.43
2016-05-02T04:27:52.286Z,19.63
2016-05-02T04:28:52.148Z,19.62
2016-05-02T04:29:52.307Z,19.73
2016-05-02T04:30:52.310Z,19.63
2016-05-02T04:31:52.312Z,19.63
2016-05-02T04:32:52.315Z,19.71
2016-05-02T04:33:52.318Z,19.43
2016-05-02T04:34:52.165Z,20.01
2016-05-02T04:35:52.510Z,20.01
2016-05-02T04:36:52.342Z,20.01
2016-05-02T04:37:52.345Z,20.01
2016-05-02T04:38:52.363Z,19.71
2016-05-02T04:39:52.350Z,19.71
2016-05-02T04:40:52.367Z,19.73
2016-05-02T04:41:52.214Z,19.91
2016-05-02T04:42:52.374Z,19.71
2016-05-02T04:43:52.376Z,19.43
2016-05-02T04:44:52.379Z,19.62
2016-05-02T04:45:52.381Z,19.91
2016-05-02T04:46:52.384Z,19.81
2016-05-02T04:47:52.247Z,19.91
2016-05-02T04:48:52.405Z,19.52
2016-05-02T04:49:52.408Z,19.43
2016-05-02T04:50:52.317Z,19.52
2016-05-02T04:51:52.272Z,19.91
2016-05-02T04:52:52.431Z,19.91
2016-05-02T04:53:52.434Z,19.23
2016-05-02T04:54:52.436Z,19.91
2016-05-02T04:55:52.299Z,19.62
2016-05-02T04:56:52.442Z,19.52
2016-05-02T04:57:52.445Z,19.91
2016-05-02T04:58:52.307Z,19.91
2016-05-02T04:59:52.466Z,19.91
2016-05-02T05:00:52.485Z,19.81
2016-05-02T05:01:52.487Z,19.52
2016-05-02T05:02:52.490Z,19.62
2016-05-02T05:03:52.493Z,19.53
2016-05-02T05:04:52.354Z,19.62
2016-05-02T05:05:52.623Z,19.71
2016-05-02T05:06:52.516Z,20.01
2016-05-02T05:07:52.519Z,19.52
2016-05-02T05:08:52.522Z,19.52
2016-05-02T05:09:52.384Z,19.52
2016-05-02T05:10:52.543Z,19.52
2016-05-02T05:11:52.389Z,19.71
2016-05-02T05:12:52.564Z,19.53
2016-05-02T05:13:52.567Z,19.53
2016-05-02T05:14:52.570Z,19.63
2016-05-02T05:15:52.587Z,19.73
2016-05-02T05:16:52.590Z,19.52
2016-05-02T05:17:52.593Z,19.81
2016-05-02T05:18:52.595Z,19.52
2016-05-02T05:19:52.598Z,19.63
2016-05-02T05:20:52.460Z,19.62
2016-05-02T05:21:52.619Z,19.81
2016-05-02T05:22:52.622Z,19.52
2016-05-02T05:23:52.484Z,19.62
2016-05-02T05:24:52.642Z,19.81
2016-05-02T05:25:52.645Z,19.91
2016-05-02T05:26:52.648Z,19.92
2016-05-02T05:27:52.666Z,19.92
2016-05-02T05:28:52.669Z,19.71
2016-05-02T05:29:52.672Z,19.52
2016-05-02T05:30:52.691Z,19.62
2016-05-02T05:31:52.693Z,19.53
2016-05-02T05:32:52.696Z,19.53
2016-05-02T05:33:52.713Z,19.63
2016-05-02T05:34:52.716Z,19.53
2016-05-02T05:35:52.563Z,19.53
2016-05-02T05:36:52.737Z,20.01
2016-05-02T05:37:52.740Z,19.73
2016-05-02T05:38:52.743Z,19.73
2016-05-02T05:39:52.745Z,19.53
2016-05-02T05:40:52.765Z,19.53
2016-05-02T05:41:52.767Z,19.92
2016-05-02T05:42:52.769Z,19.73
2016-05-02T05:43:52.787Z,19.73
2016-05-02T05:44:52.790Z,19.63
2016-05-02T05:45:52.809Z,19.73
2016-05-02T05:46:52.811Z,19.63
2016-05-02T05:47:52.814Z,19.53
2016-05-02T05:48:52.832Z,20.01
2016-05-02T05:49:52.835Z,19.63
2016-05-02T05:50:52.697Z,19.63
2016-05-02T05:51:52.700Z,19.53
2016-05-02T05:52:52.858Z,19.63
2016-05-02T05:53:52.877Z,19.92
2016-05-02T05:54:52.864Z,19.63
2016-05-02T05:55:52.883Z,19.73
2016-05-02T05:56:52.886Z,19.53
2016-05-02T05:57:52.888Z,19.63
2016-05-02T05:58:52.905Z,19.53
2016-05-02T05:59:52.908Z,19.92
2016-05-02T06:00:52.911Z,19.82
2016-05-02T06:01:52.774Z,19.63
2016-05-02T06:02:52.932Z,19.73
2016-05-02T06:03:52.779Z,19.63
2016-05-02T06:04:52.954Z,19.82
2016-05-02T06:05:52.956Z,19.63
2016-05-02T06:06:52.974Z,19.05
2016-05-02T06:07:52.977Z,19.06
2016-05-02T06:08:52.980Z,19.34
2016-05-02T06:09:52.999Z,19.35
2016-05-02T06:10:53.001Z,19.73
2016-05-02T06:11:53.003Z,19.24
2016-05-02T06:12:53.021Z,18.95
2016-05-02T06:13:53.024Z,18.96
2016-05-02T06:14:53.026Z,19.15
2016-05-02T06:15:53.045Z,19.06
2016-05-02T06:16:53.048Z,19.45
2016-05-02T06:17:53.067Z,19.35
2016-05-02T06:18:53.069Z,19.45
2016-05-02T06:19:53.087Z,19.45
2016-05-02T06:20:53.089Z,18.96
2016-05-02T06:21:53.092Z,19.06
2016-05-02T06:22:53.147Z,18.67
2016-05-02T06:23:53.102Z,18.67
2016-05-02T06:24:53.122Z,18.87
2016-05-02T06:25:53.124Z,18.87
2016-05-02T06:26:52.971Z,18.96
2016-05-02T06:27:53.144Z,18.87
2016-05-02T06:28:53.147Z,18.87
2016-05-02T06:29:53.010Z,18.97
2016-05-02T06:30:53.013Z,18.97
2016-05-02T06:31:53.187Z,18.77
2016-05-02T06:32:53.190Z,18.77
2016-05-02T06:33:53.193Z,18.77
2016-05-02T06:34:53.210Z,18.77
2016-05-02T06:35:53.714Z,18.77
2016-05-02T06:36:53.232Z,18.67
2016-05-02T06:37:53.079Z,18.68
2016-05-02T06:38:53.253Z,18.59
2016-05-02T06:39:53.256Z,18.77
2016-05-02T06:40:53.259Z,18.49
2016-05-02T06:41:53.262Z,18.67
2016-05-02T06:42:53.295Z,18.77
2016-05-02T06:43:53.298Z,18.77
2016-05-02T06:44:53.300Z,18.67
2016-05-02T06:45:53.303Z,18.67
2016-05-02T06:46:53.336Z,18.57
2016-05-02T06:47:53.324Z,18.96
2016-05-02T06:48:53.342Z,18.97
2016-05-02T06:49:53.345Z,18.77
2016-05-02T06:50:53.348Z,19.07
2016-05-02T06:51:53.209Z,18.77
2016-05-02T06:52:53.368Z,18.97
2016-05-02T06:53:53.386Z,18.77
2016-05-02T06:54:53.389Z,18.97
2016-05-02T06:55:53.408Z,18.87
2016-05-02T06:56:53.426Z,18.97
2016-05-02T06:57:53.429Z,18.87
2016-05-02T06:58:53.432Z,18.87
2016-05-02T06:59:53.450Z,18.87
2016-05-02T07:00:53.452Z,18.87
2016-05-02T07:01:53.455Z,18.87
2016-05-02T07:02:53.474Z,18.68
2016-05-02T07:03:53.492Z,18.87
2016-05-02T07:04:53.494Z,18.77
2016-05-02T07:05:53.497Z,18.77
2016-05-02T07:06:53.516Z,18.77
2016-05-02T07:07:53.518Z,18.87
2016-05-02T07:08:53.380Z,18.97
2016-05-02T07:09:53.540Z,18.87
2016-05-02T07:10:53.573Z,18.97
2016-05-02T07:11:53.560Z,18.97
2016-05-02T07:12:53.579Z,18.68
2016-05-02T07:13:53.581Z,18.97
2016-05-02T07:14:53.584Z,18.97
2016-05-02T07:15:53.602Z,18.77
2016-05-02T07:16:53.621Z,18.77
2016-05-02T07:17:53.623Z,18.68
2016-05-02T07:18:53.626Z,18.68
2016-05-02T07:19:53.659Z,19.07
2016-05-02T07:20:54.225Z,19.73
2016-05-02T07:21:53.665Z,19.64
2016-05-02T07:22:53.667Z,19.73
2016-05-02T07:23:53.703Z,19.82
2016-05-02T07:24:53.689Z,19.43
2016-05-02T07:25:53.708Z,20.21
2016-05-02T07:26:53.711Z,19.92
2016-05-02T07:27:53.713Z,19.92
2016-05-02T07:28:53.731Z,19.53
2016-05-02T07:29:53.749Z,19.73
2016-05-02T07:30:53.752Z,19.63
2016-05-02T07:31:53.598Z,19.63
2016-05-02T07:32:53.757Z,19.45
2016-05-02T07:33:53.776Z,19.15
2016-05-02T07:34:53.779Z,19.15
2016-05-02T07:35:53.781Z,18.67
2016-05-02T07:36:53.799Z,18.96
2016-05-02T07:37:53.801Z,18.68
2016-05-02T07:38:53.805Z,18.97
2016-05-02T07:39:53.823Z,18.68
2016-05-02T07:40:53.670Z,18.49
2016-05-02T07:41:53.829Z,18.68
2016-05-02T07:42:53.847Z,17.91
2016-05-02T07:43:53.849Z,18.01
2016-05-02T07:44:53.852Z,18.21
2016-05-02T07:45:53.855Z,18.21
2016-05-02T07:46:53.873Z,18.11
2016-05-02T07:47:53.876Z,18.21
2016-05-02T07:48:53.878Z,18.01
2016-05-02T07:49:53.897Z,18.11
2016-05-02T07:50:53.743Z,18.11
2016-05-02T07:51:53.918Z,17.82
2016-05-02T07:52:53.905Z,17.82
2016-05-02T07:53:53.923Z,18.11
2016-05-02T07:54:53.925Z,18.01
2016-05-02T07:55:53.928Z,17.72
2016-05-02T07:56:53.947Z,17.82
2016-05-02T07:57:53.966Z,17.82
2016-05-02T07:58:53.952Z,17.92
2016-05-02T07:59:53.799Z,17.83
2016-05-02T08:00:53.958Z,17.72
2016-05-02T08:01:53.976Z,17.73
2016-05-02T08:02:53.979Z,17.82
2016-05-02T08:03:53.982Z,17.63
2016-05-02T08:04:53.984Z,17.43
2016-05-02T08:05:54.002Z,17.83
2016-05-02T08:06:54.005Z,17.83
2016-05-02T08:07:54.008Z,17.73
2016-05-02T08:08:54.027Z,17.91
2016-05-02T08:09:54.028Z,17.82
2016-05-02T08:10:54.032Z,17.91
2016-05-02T08:11:54.034Z,17.73
2016-05-02T08:12:54.052Z,17.92
2016-05-02T08:13:54.055Z,17.92
2016-05-02T08:14:54.058Z,17.54
2016-05-02T08:15:53.920Z,17.63
2016-05-02T08:16:54.078Z,17.92
2016-05-02T08:17:54.081Z,17.83
2016-05-02T08:18:54.084Z,17.83
2016-05-02T08:19:54.087Z,17.91
2016-05-02T08:20:54.106Z,17.72
2016-05-02T08:21:54.108Z,17.82
2016-05-02T08:22:54.110Z,17.82
2016-05-02T08:23:54.129Z,17.82
2016-05-02T08:24:54.131Z,17.82
2016-05-02T08:25:54.134Z,17.91
2016-05-02T08:26:54.153Z,17.73
2016-05-02T08:27:54.155Z,17.83
2016-05-02T08:28:54.158Z,17.92
2016-05-02T08:29:54.177Z,17.92
2016-05-02T08:30:54.163Z,17.72
2016-05-02T08:31:54.182Z,17.72
2016-05-02T08:32:54.028Z,17.62
2016-05-02T08:33:54.187Z,17.72
2016-05-02T08:34:54.205Z,18.11
2016-05-02T08:35:54.208Z,18.01
2016-05-02T08:36:54.601Z,18.11
2016-05-02T08:37:54.214Z,17.82
2016-05-02T08:38:54.232Z,19.66
2016-05-02T08:39:54.234Z,18.79
2016-05-02T08:40:54.237Z,18.98
2016-05-02T08:41:54.240Z,18.49
2016-05-02T08:42:54.243Z,18.3
2016-05-02T08:43:54.245Z,19.27
2016-05-02T08:44:54.263Z,19.66
2016-05-02T08:45:54.266Z,19.45
2016-05-02T08:46:54.254Z,18.88
2016-05-02T08:47:54.256Z,18.77
2016-05-02T08:48:54.259Z,19.65
2016-05-02T08:49:54.355Z,19.65
2016-05-02T08:50:54.264Z,19.74
2016-05-02T08:51:54.282Z,19.74
2016-05-02T08:52:54.285Z,20.71
2016-05-02T08:53:54.272Z,19.82
2016-05-02T08:54:54.289Z,20.41
2016-05-02T08:55:54.278Z,20.79
2016-05-02T08:56:54.281Z,21.08
2016-05-02T08:57:54.298Z,20.59
2016-05-02T08:58:54.145Z,21.75
2016-05-02T08:59:54.304Z,20.7
2016-05-02T09:00:54.306Z,20.52
2016-05-02T09:01:54.309Z,21.75
2016-05-02T09:02:54.312Z,22.31
2016-05-02T09:03:54.314Z,22.88
2016-05-02T09:04:54.161Z,22.12
2016-05-02T09:05:54.320Z,21.84
2016-05-02T09:06:54.322Z,22.13
2016-05-02T09:07:54.341Z,21.84
2016-05-02T09:08:54.344Z,21.47
2016-05-02T09:09:54.346Z,21.36
2016-05-02T09:10:54.349Z,21.66
2016-05-02T09:11:54.382Z,20.98
2016-05-02T09:12:54.354Z,21.08
2016-05-02T09:13:54.357Z,20.61
2016-05-02T09:14:54.390Z,21.09
2016-05-02T09:15:54.221Z,21.95
2016-05-02T09:16:54.381Z,20.7
2016-05-02T09:17:54.384Z,20.98
2016-05-02T09:18:54.386Z,21.38
2016-05-02T09:19:54.389Z,22.25
2016-05-02T09:20:54.392Z,21.85
2016-05-02T09:21:54.410Z,20.69
2016-05-02T09:22:54.397Z,20.7
2016-05-02T09:23:54.415Z,20.99
2016-05-02T09:24:54.261Z,21.95
2016-05-02T09:25:54.421Z,22.23
2016-05-02T09:26:54.470Z,21.08
2016-05-02T09:27:54.270Z,21.47
2016-05-02T09:28:54.429Z,21.66
2016-05-02T09:29:54.447Z,20.98
2016-05-02T09:30:54.449Z,21.17
2016-05-02T09:31:54.452Z,21.77
2016-05-02T09:32:54.300Z,22.16
2016-05-02T09:33:54.458Z,20.9
2016-05-02T09:34:54.476Z,21.19
2016-05-02T09:35:54.480Z,20.71
2016-05-02T09:36:54.341Z,22.16
2016-05-02T09:37:54.484Z,21.86
2016-05-02T09:38:54.347Z,21.67
2016-05-02T09:39:54.333Z,22.26
2016-05-02T09:40:54.492Z,21.96
2016-05-02T09:41:54.511Z,21.96
2016-05-02T09:42:54.357Z,21.85
2016-05-02T09:43:54.515Z,23.02
2016-05-02T09:44:54.504Z,24.93
2016-05-02T09:45:54.521Z,23.39
2016-05-02T09:46:54.509Z,23.19
2016-05-02T09:47:54.512Z,23.21
2016-05-02T09:48:54.514Z,23.41
2016-05-02T09:49:54.517Z,23.5
2016-05-02T09:50:54.519Z,23.39
2016-05-02T09:51:54.538Z,22.13
2016-05-02T09:52:54.525Z,23.01
2016-05-02T09:53:54.543Z,23.29
2016-05-02T09:54:54.530Z,24.24
2016-05-02T09:55:54.533Z,24.81
2016-05-02T09:56:54.550Z,24.91
2016-05-02T09:57:54.538Z,24.15
2016-05-02T09:58:54.556Z,24.54
2016-05-02T09:59:54.558Z,24.34
2016-05-02T10:00:54.546Z,24.44
2016-05-02T10:01:54.564Z,24.81
2016-05-02T10:02:54.567Z,24.33
2016-05-02T10:03:54.570Z,23.76
2016-05-02T10:04:54.572Z,22.99
2016-05-02T10:05:54.575Z,23.19
2016-05-02T10:06:54.765Z,23.1
2016-05-02T10:07:54.580Z,23.87
2016-05-02T10:08:54.600Z,24.63
2016-05-02T10:09:54.645Z,24.91
2016-05-02T10:10:54.691Z,24.62
2016-05-02T10:11:54.737Z,24.14
2016-05-02T10:12:54.783Z,21.83
2016-05-02T10:13:54.818Z,23
2016-05-02T10:14:54.696Z,23.57
2016-05-02T10:15:54.871Z,23.08
2016-05-02T10:16:54.889Z,22.12
2016-05-02T10:17:54.907Z,22.12
2016-05-02T10:18:54.922Z,23.08
2016-05-02T10:19:54.930Z,23.86
2016-05-02T10:20:54.923Z,23.38
2016-05-02T10:21:55.416Z,23.66
2016-05-02T10:22:54.956Z,22.88
2016-05-02T10:23:54.962Z,22.4
2016-05-02T10:24:54.967Z,22.98
2016-05-02T10:25:54.987Z,22.38
2016-05-02T10:26:54.805Z,21.91
2016-05-02T10:27:54.965Z,21.44
2016-05-02T10:28:54.970Z,22.11
2016-05-02T10:29:54.973Z,22.89
2016-05-02T10:30:54.961Z,23.08
2016-05-02T10:31:54.980Z,22.2
2016-05-02T10:32:54.983Z,22.12
2016-05-02T10:33:54.971Z,21.65
2016-05-02T10:34:54.989Z,21.94
2016-05-02T10:35:54.976Z,22.91
2016-05-02T10:36:54.995Z,23.08
2016-05-02T10:37:54.982Z,23.08
2016-05-02T10:38:54.985Z,23.17
2016-05-02T10:39:54.846Z,23.08
2016-05-02T10:40:55.005Z,23.08
2016-05-02T10:41:55.008Z,23.17
2016-05-02T10:42:55.011Z,22.02
2016-05-02T10:43:54.857Z,20.18
2016-05-02T10:44:55.016Z,21.36
2016-05-02T10:45:55.018Z,22.22
2016-05-02T10:46:55.021Z,22.31
2016-05-02T10:47:55.023Z,21.92
2016-05-02T10:48:55.027Z,21.92
2016-05-02T10:49:55.045Z,22.12
2016-05-02T10:50:54.892Z,22.03
2016-05-02T10:51:54.909Z,22.13
2016-05-02T10:52:55.053Z,22.12
2016-05-02T10:53:55.056Z,21.92
2016-05-02T10:54:55.058Z,21.92
2016-05-02T10:55:55.076Z,22.11
2016-05-02T10:56:55.064Z,22.11
2016-05-02T10:57:55.082Z,21.91
2016-05-02T10:58:54.929Z,19.68
2016-05-02T10:59:55.087Z,20
2016-05-02T11:00:55.106Z,18.84
2016-05-02T11:01:55.092Z,19.13
2016-05-02T11:02:55.095Z,20.49
2016-05-02T11:03:55.114Z,21.17
2016-05-02T11:04:55.101Z,20.49
2016-05-02T11:05:55.104Z,20.49
2016-05-02T11:06:55.497Z,19.81
2016-05-02T11:07:54.953Z,20.89
2016-05-02T11:08:55.111Z,21.66
2016-05-02T11:09:55.130Z,21.17
2016-05-02T11:10:55.132Z,20.87
2016-05-02T11:11:55.135Z,20.78
2016-05-02T11:12:55.155Z,20.97
2016-05-02T11:13:55.141Z,20.1
2016-05-02T11:14:55.144Z,20.2
2016-05-02T11:15:55.005Z,20.01
2016-05-02T11:16:55.165Z,20.98
2016-05-02T11:17:55.168Z,19.24
2016-05-02T11:18:55.170Z,20.78
2016-05-02T11:19:55.173Z,20.97
2016-05-02T11:20:55.176Z,21.84
2016-05-02T11:21:55.193Z,20.39
2016-05-02T11:22:55.188Z,20.1
2016-05-02T11:23:55.191Z,18.17
2016-05-02T11:24:55.210Z,20.97
2016-05-02T11:25:55.056Z,20.4
2016-05-02T11:26:55.215Z,19.05
2016-05-02T11:27:55.217Z,19.71
2016-05-02T11:28:55.236Z,22.23
2016-05-02T11:29:55.223Z,19.63
2016-05-02T11:30:55.241Z,19.82
2016-05-02T11:31:55.088Z,19.43
2016-05-02T11:32:55.247Z,19.53
2016-05-02T11:33:55.093Z,19.73
2016-05-02T11:34:55.095Z,21.75
2016-05-02T11:35:55.255Z,22.14
2016-05-02T11:36:55.539Z,20.59
2016-05-02T11:37:55.276Z,20.5
2016-05-02T11:38:55.278Z,20.4
2016-05-02T11:39:55.281Z,19.43
2016-05-02T11:40:55.300Z,21.08
2016-05-02T11:41:55.302Z,21.95
2016-05-02T11:42:55.304Z,20.01
2016-05-02T11:43:55.324Z,18.57
2016-05-02T11:44:55.154Z,20.79
2016-05-02T11:45:55.329Z,21.95
2016-05-02T11:46:55.332Z,22.05
2016-05-02T11:47:55.334Z,19.33
2016-05-02T11:48:55.337Z,20.79
2016-05-02T11:49:55.340Z,21.65
2016-05-02T11:50:55.357Z,18.18
2016-05-02T11:51:55.360Z,20.5
2016-05-02T11:52:55.363Z,21.66
2016-05-02T11:53:55.365Z,21.75
2016-05-02T11:54:55.368Z,20.01
2016-05-02T11:55:55.371Z,21.07
2016-05-02T11:56:55.373Z,19.52
2016-05-02T11:57:55.392Z,19.04
2016-05-02T11:58:55.395Z,21.94
2016-05-02T11:59:55.398Z,21.26
2016-05-02T12:00:55.400Z,21.65
2016-05-02T12:01:55.403Z,20.68
2016-05-02T12:02:55.406Z,21.65
2016-05-02T12:03:55.424Z,22.03
2016-05-02T12:04:55.426Z,19.81
2016-05-02T12:05:55.273Z,18.55
2016-05-02T12:06:55.432Z,19.13
2016-05-02T12:07:55.279Z,20.59
2016-05-02T12:08:55.437Z,19.62
2016-05-02T12:09:55.456Z,18.55
2016-05-02T12:10:55.458Z,19.53
2016-05-02T12:11:55.461Z,18.94
2016-05-02T12:12:55.495Z,17.78
2016-05-02T12:13:55.483Z,18.94
2016-05-02T12:14:55.469Z,18.55
2016-05-02T12:15:55.487Z,17.5
2016-05-02T12:16:55.490Z,17.88
2016-05-02T12:17:55.493Z,18.36
2016-05-02T12:18:55.339Z,20.87
2016-05-02T12:19:55.499Z,21.07
2016-05-02T12:20:55.501Z,21.55
2016-05-02T12:21:55.504Z,20.96
2016-05-02T12:22:55.349Z,21.34
2016-05-02T12:23:55.509Z,21.92
2016-05-02T12:24:55.526Z,21.73
2016-05-02T12:25:55.530Z,21.64
2016-05-02T12:26:55.532Z,20.67
2016-05-02T12:27:55.535Z,18.74
2016-05-02T12:28:55.381Z,19.71
2016-05-02T12:29:55.540Z,20.59
2016-05-02T12:30:55.559Z,20.97
2016-05-02T12:31:55.545Z,20.28
2016-05-02T12:32:55.565Z,19.81
2016-05-02T12:33:55.567Z,20.67
2016-05-02T12:34:55.569Z,20.57
2016-05-02T12:35:55.573Z,20.19
2016-05-02T12:36:55.809Z,19.03
2016-05-02T12:37:55.594Z,20.38
2016-05-02T12:38:55.581Z,20.57
2016-05-02T12:39:55.599Z,19.12
2016-05-02T12:40:55.602Z,18.06
2016-05-02T12:41:55.604Z,18.35
2016-05-02T12:42:55.607Z,19.61
2016-05-02T12:43:55.610Z,18.54
2016-05-02T12:44:55.613Z,20.77
2016-05-02T12:45:55.615Z,20.66
2016-05-02T12:46:55.618Z,19.79
2016-05-02T12:47:55.635Z,20.56
2016-05-02T12:48:55.624Z,20.76
2016-05-02T12:49:55.469Z,20.66
2016-05-02T12:50:55.644Z,20.76
2016-05-02T12:51:55.632Z,20.18
2016-05-02T12:52:55.680Z,20.66
2016-05-02T12:53:55.652Z,20.66